• Join FlightAware (Why Join?)
  • Login
  • US Flag 
08:48PM EDT


 

Airport Tracker/Info


-or-


 

Live Flight TrackerFlight Track Log ✈ CMP472 ✈ 12-Apr-2013 ✈ MPTO / PTY - KLAX

Flight Track Log - Related Links

Times and Time Zones

All times are in EDT time to prevent confusion due to time zone crossing. See the CMP472 flight status page for this flight to view local times or setup timezone preferences in your user account.

Time Position Orientation Groundspeed Altitude Reporting Facility
EDT Latitude Longitude Course Direction KTS MPH feet Rate Location/Type
01:19PM 9.0730 -79.3780 31° Northeast 186 214 500  Level FlightAware
01:19PM 9.0930 -79.3670 29° Northeast 190 219 1,700 2,460 Climbing FlightAware
01:20PM 9.1170 -79.3530 30° Northeast 188 216 2,800 1,800 Climbing FlightAware
01:20PM 9.1380 -79.3410 29° Northeast 210 242 3,400 1,260 Climbing FlightAware
01:21PM 9.1660 -79.3250 29° Northeast 242 278 4,000 1,380 Climbing FlightAware
01:21PM 9.1920 -79.3110 28° Northeast 273 314 4,700 840 Climbing FlightAware
01:22PM 9.2160 -79.2980 28° Northeast 273 314 4,700 2,700 Level FlightAware
01:22PM 9.2360 -79.3000 354° North 281 323 6,300 3,120 Climbing FlightAware
01:23PM 9.2930 -79.3820 305° West 299 344 9,400 2,160 Climbing FlightAware
01:24PM 9.3310 -79.4260 311° West 316 364 10,700 1,440 Climbing FlightAware
01:25PM 9.3780 -79.4790 312° West 358 412 11,500 1,500 Climbing FlightAware
01:25PM 9.4240 -79.5310 312° West 367 422 12,900 2,040 Climbing FlightAware
01:26PM 9.4330 -79.5550 291° West 369 425 13,400 1,920 Climbing FlightAware
01:26PM 9.4320 -79.6240 269° West 378 435 14,700 2,040 Climbing FlightAware
01:27PM 9.4290 -79.7040 268° West 382 440 16,300 2,040 Climbing FlightAware
01:28PM 9.4260 -79.7770 268° West 387 445 17,600 1,680 Climbing FlightAware
01:28PM 9.4240 -79.8590 269° West 396 456 18,700 1,380 Climbing FlightAware
01:29PM 9.4200 -79.9330 267° West 407 468 19,600 1,320 Climbing FlightAware
01:30PM 9.4280 -80.0110 276° West 416 479 20,500 1,200 Climbing FlightAware
01:30PM 9.4650 -80.0950 294° West 431 496 21,300 1,080 Climbing FlightAware
01:31PM 9.5020 -80.1670 298° West 441 507 22,100 660 Climbing FlightAware
01:32PM 9.5390 -80.2450 296° West 442 509 22,300 120 Climbing FlightAware
01:33PM 9.5700 -80.3090 296° West 442 509 22,300  Level FlightAware
01:33PM 9.6000 -80.3720 296° West 442 509 22,300  Level FlightAware
01:34PM 9.6310 -80.4350 297° West 442 509 22,300  Level FlightAware
01:35PM 9.6610 -80.4990 295° West 442 509 22,300  Level FlightAware
01:35PM 9.6920 -80.5620 297° West 442 509 22,300 180 Level FlightAware
01:38PM 9.9092 -80.7421 302° West  Level FlightAware Approximate
01:39PM 9.9719 -80.8439 302° West  Level FlightAware Approximate
01:40PM 10.0338 -80.9463 300° West  Level FlightAware Approximate
01:41PM 10.0936 -81.0499 300° West  Level FlightAware Approximate
01:42PM 10.1535 -81.1536 300° West  Level FlightAware Approximate
01:43PM 10.2133 -81.2573 300° West  Level FlightAware Approximate
01:44PM 10.2734 -81.3609 302° West  Level FlightAware Approximate
01:45PM 10.3362 -81.4628 302° West  Level FlightAware Approximate
01:46PM 10.3989 -81.5647 302° West  Level FlightAware Approximate
01:47PM 10.4617 -81.6667 302° West  Level FlightAware Approximate
01:48PM 10.5244 -81.7688 302° West  Level FlightAware Approximate
01:49PM 10.5873 -81.8707 302° West  Level FlightAware Approximate
01:50PM 10.6502 -81.9726 302° West  Level FlightAware Approximate
01:51PM 10.7130 -82.0746 302° West  Level FlightAware Approximate
01:52PM 10.7759 -82.1766 302° West  Level FlightAware Approximate
01:53PM 10.8387 -82.2787 302° West  Level FlightAware Approximate
01:54PM 10.9015 -82.3808 302° West  Level FlightAware Approximate
01:55PM 10.9642 -82.4829 302° West  Level FlightAware Approximate
01:56PM 11.0269 -82.5851 302° West  Level FlightAware Approximate
01:57PM 11.0892 -82.6876 301° West  Level FlightAware Approximate
01:58PM 11.1507 -82.7906 301° West  Level FlightAware Approximate
01:59PM 11.2122 -82.8936 301° West  Level FlightAware Approximate
02:00PM 11.2736 -82.9967 301° West  Level FlightAware Approximate
02:01PM 11.3351 -83.0998 301° West  Level FlightAware Approximate
02:02PM 11.3965 -83.2029 301° West  Level FlightAware Approximate
02:03PM 11.4578 -83.3062 301° West  Level FlightAware Approximate
02:04PM 11.5191 -83.4094 301° West  Level FlightAware Approximate
02:05PM 11.5804 -83.5127 301° West  Level FlightAware Approximate
02:06PM 11.6416 -83.6160 301° West  Level FlightAware Approximate
02:07PM 11.7028 -83.7194 301° West  Level FlightAware Approximate
02:08PM 11.7640 -83.8228 301° West  Level FlightAware Approximate
02:09PM 11.8251 -83.9263 301° West  Level FlightAware Approximate
02:10PM 11.8862 -84.0298 301° West  Level FlightAware Approximate
02:11PM 11.9473 -84.1334 301° West  Level FlightAware Approximate
02:12PM 12.0083 -84.2370 301° West  Level FlightAware Approximate
02:13PM 12.0693 -84.3406 301° West  Level FlightAware Approximate
02:14PM 12.1302 -84.4443 301° West  Level FlightAware Approximate
02:15PM 12.1911 -84.5481 301° West  Level FlightAware Approximate
02:16PM 12.2520 -84.6519 301° West  Level FlightAware Approximate
02:17PM 12.3128 -84.7557 301° West  Level FlightAware Approximate
02:18PM 12.3736 -84.8596 301° West  Level FlightAware Approximate
02:19PM 12.4345 -84.9635 301° West  Level FlightAware Approximate
02:20PM 12.4958 -85.0671 301° West  Level FlightAware Approximate
02:21PM 12.5570 -85.1708 301° West  Level FlightAware Approximate
02:22PM 12.6182 -85.2746 301° West  Level FlightAware Approximate
02:23PM 12.6794 -85.3783 301° West  Level FlightAware Approximate
02:24PM 12.7405 -85.4822 301° West  Level FlightAware Approximate
02:25PM 12.8016 -85.5861 301° West  Level FlightAware Approximate
02:26PM 12.8626 -85.6900 301° West  Level FlightAware Approximate
02:27PM 12.9236 -85.7940 301° West  Level FlightAware Approximate
02:28PM 12.9846 -85.8980 301° West  Level FlightAware Approximate
02:29PM 13.0455 -86.0021 301° West  Level FlightAware Approximate
02:30PM 13.1064 -86.1063 301° West  Level FlightAware Approximate
02:31PM 13.1672 -86.2105 301° West  Level FlightAware Approximate
02:32PM 13.2280 -86.3147 301° West  Level FlightAware Approximate
02:33PM 13.2887 -86.4190 301° West  Level FlightAware Approximate
02:34PM 13.3494 -86.5234 301° West  Level FlightAware Approximate
02:35PM 13.4101 -86.6278 301° West  Level FlightAware Approximate
02:36PM 13.4707 -86.7322 301° West  Level FlightAware Approximate
02:36PM 13.6700 -87.3580 301° West 439 505 34,000  Level FlightAware
02:37PM 13.5313 -86.8367 301° West  Level FlightAware Approximate
02:38PM 13.5918 -86.9413 301° West  Level FlightAware Approximate
02:38PM 13.8350 -87.6260 302° West 437 503 34,000  Level FlightAware
02:40PM 13.9210 -87.7680 302° West 436 502 34,000  Level FlightAware
02:40PM 13.9600 -87.8310 303° West 436 502 34,000  Level FlightAware
02:43PM 14.1341 -88.0359 311° West  Level FlightAware Approximate
02:43PM 14.1010 -88.0630 311° West 433 498 34,000  Level FlightAware
02:43PM 14.1440 -88.1340 302° West 432 497 34,000  Level FlightAware
02:44PM 14.1920 -88.2120 302° West 434 499 34,000  Level FlightAware
02:45PM 14.2350 -88.2840 302° West 434 499 34,000  Level FlightAware
02:45PM 14.2840 -88.3630 303° West 435 501 34,000  Level FlightAware
02:46PM 14.3260 -88.4340 301° West 435 501 34,000  Level FlightAware
02:47PM 14.3750 -88.5140 302° West 433 498 34,000  Level FlightAware
02:47PM 14.4170 -88.5840 302° West 434 499 34,000  Level FlightAware
02:48PM 14.4680 -88.6720 301° West 435 501 34,000  Level FlightAware
02:49PM 14.5110 -88.7490 300° West 435 501 34,000  Level FlightAware
02:50PM 14.5680 -88.8330 305° West 438 504 34,000  Level FlightAware
02:50PM 14.6110 -88.9060 301° West 438 504 34,000  Level FlightAware
02:51PM 14.6590 -88.9850 302° West 438 504 34,000  Level FlightAware
02:52PM 14.7020 -89.0560 302° West 437 503 34,000  Level FlightAware
02:53PM 14.7460 -89.1290 302° West 437 503 34,000  Level FlightAware
02:53PM 14.7940 -89.2090 302° West 436 502 34,000  Level FlightAware
02:54PM 14.8370 -89.2810 302° West 438 504 34,000  Level FlightAware
02:55PM 14.8850 -89.3620 302° West 438 504 34,000  Level FlightAware
02:55PM 14.9230 -89.4260 302° West 438 504 34,000  Level FlightAware
02:56PM 14.9760 -89.5140 302° West 438 504 34,000 120 Level FlightAware
02:57PM 15.0190 -89.5850 302° West 434 499 34,200 720 Climbing FlightAware
02:58PM 15.0660 -89.6650 301° West 426 490 35,100 960 Climbing FlightAware
02:58PM 15.1070 -89.7330 302° West 426 490 35,600 660 Climbing FlightAware
02:59PM 15.1490 -89.8050 301° West 430 495 36,000 240 Climbing FlightAware
03:00PM 15.1960 -89.8830 302° West 432 497 36,000  Level FlightAware
03:00PM 15.2370 -89.9530 301° West 431 496 36,000  Level FlightAware
03:01PM 15.2850 -90.0330 302° West 430 495 36,000  Level FlightAware
03:02PM 15.3260 -90.1020 302° West 430 495 36,000  Level FlightAware
03:02PM 15.3680 -90.1740 301° West 424 488 36,000  Level FlightAware
03:03PM 15.4140 -90.2520 301° West 421 484 36,000  Level FlightAware
03:04PM 15.4530 -90.3180 302° West 420 483 36,000  Level FlightAware
03:05PM 15.5020 -90.4010 302° West 418 481 36,000  Level FlightAware
03:05PM 15.5350 -90.4570 301° West 418 481 36,000  Level FlightAware
03:06PM 15.5820 -90.5370 301° West 415 478 36,000  Level FlightAware
03:07PM 15.6220 -90.6060 301° West 415 478 36,000  Level FlightAware
03:07PM 15.6540 -90.6650 299° West 415 478 36,000  Level FlightAware
03:08PM 15.6950 -90.7380 300° West 415 478 36,000  Level FlightAware
03:09PM 15.7490 -90.8230 303° West 415 478 36,000  Level FlightAware
03:09PM 15.7820 -90.8820 300° West 415 478 36,000  Level FlightAware
03:10PM 15.8140 -90.9400 300° West 415 478 36,000  Level FlightAware
03:11PM 15.8470 -90.9990 300° West 415 478 36,000  Level FlightAware
03:11PM 15.8800 -91.0580 300° West 415 478 36,000  Level FlightAware
03:12PM 15.9200 -91.1310 300° West 415 478 36,000  Level FlightAware
03:13PM 15.9530 -91.1900 300° West 415 478 36,000  Level FlightAware
03:14PM 15.9860 -91.2490 300° West 415 478 36,000  Level FlightAware
03:14PM 16.0180 -91.3080 299° West 415 478 36,000  Level FlightAware
03:15PM 16.0590 -91.3810 300° West 415 478 36,000  Level FlightAware
03:16PM 16.0920 -91.4400 300° West 415 478 36,000  Level FlightAware
03:16PM 16.1240 -91.4990 299° West 415 478 36,000  Level FlightAware
03:17PM 16.1570 -91.5580 300° West 415 478 36,000  Level FlightAware
03:18PM 16.1900 -91.6170 300° West 415 478 36,000  Level FlightAware
03:20PM 16.3300 -91.7868 311° West  Level FlightAware Approximate
03:21PM 16.4070 -91.8804 311° West  Level FlightAware Approximate
03:22PM 16.4840 -91.9741 311° West  Level FlightAware Approximate
03:23PM 16.5609 -92.0679 311° West  Level FlightAware Approximate
03:24PM 16.6378 -92.1617 311° West  Level FlightAware Approximate
03:25PM 16.7146 -92.2556 311° West  Level FlightAware Approximate
03:26PM 16.7915 -92.3496 310° West  Level FlightAware Approximate
03:27PM 16.8682 -92.4436 310° West  Level FlightAware Approximate
03:28PM 16.9449 -92.5377 310° West  Level FlightAware Approximate
03:29PM 17.0216 -92.6319 310° West  Level FlightAware Approximate
03:30PM 17.0982 -92.7262 310° West  Level FlightAware Approximate
03:31PM 17.1748 -92.8206 310° West  Level FlightAware Approximate
03:32PM 17.2514 -92.9150 310° West  Level FlightAware Approximate
03:33PM 17.3279 -93.0095 310° West  Level FlightAware Approximate
03:34PM 17.4043 -93.1041 310° West  Level FlightAware Approximate
03:35PM 17.4807 -93.1988 310° West  Level FlightAware Approximate
03:36PM 17.5571 -93.2935 310° West  Level FlightAware Approximate
03:37PM 17.6334 -93.3884 310° West  Level FlightAware Approximate
03:38PM 17.7097 -93.4833 310° West  Level FlightAware Approximate
03:39PM 17.7859 -93.5783 310° West  Level FlightAware Approximate
03:40PM 17.8621 -93.6733 310° West  Level FlightAware Approximate
03:41PM 17.9382 -93.7685 310° West  Level FlightAware Approximate
03:42PM 18.0143 -93.8637 310° West  Level FlightAware Approximate
03:43PM 18.0888 -93.9604 309° West  Level FlightAware Approximate
03:44PM 18.1632 -94.0571 309° West  Level FlightAware Approximate
03:45PM 18.2376 -94.1540 309° West  Level FlightAware Approximate
03:46PM 18.3119 -94.2509 309° West  Level FlightAware Approximate
03:47PM 18.3862 -94.3479 309° West  Level FlightAware Approximate
03:48PM 18.4604 -94.4450 309° West  Level FlightAware Approximate
03:49PM 18.5346 -94.5422 309° West  Level FlightAware Approximate
03:50PM 18.6087 -94.6395 309° West  Level FlightAware Approximate
03:51PM 18.6828 -94.7368 309° West  Level FlightAware Approximate
03:52PM 18.7568 -94.8343 309° West  Level FlightAware Approximate
03:53PM 18.8308 -94.9318 309° West  Level FlightAware Approximate
03:54PM 18.9047 -95.0294 309° West  Level FlightAware Approximate
03:55PM 18.9786 -95.1271 309° West  Level FlightAware Approximate
03:56PM 19.0513 -95.2258 308° West  Level FlightAware Approximate
03:57PM 19.1239 -95.3247 308° West  Level FlightAware Approximate
03:58PM 19.1964 -95.4236 308° West  Level FlightAware Approximate
03:59PM 19.2689 -95.5226 308° West  Level FlightAware Approximate
04:00PM 19.3413 -95.6218 308° West  Level FlightAware Approximate
04:01PM 19.4137 -95.7210 308° West  Level FlightAware Approximate
04:02PM 19.4860 -95.8202 309° West  Level FlightAware Approximate
04:03PM 19.5603 -95.9179 309° West  Level FlightAware Approximate
04:04PM 19.6345 -96.0157 309° West  Level FlightAware Approximate
04:05PM 19.7086 -96.1136 309° West  Level FlightAware Approximate
04:06PM 19.7827 -96.2116 309° West  Level FlightAware Approximate
04:07PM 19.8567 -96.3097 309° West  Level FlightAware Approximate
04:08PM 19.9307 -96.4079 309° West  Level FlightAware Approximate
04:09PM 20.0047 -96.5062 309° West  Level FlightAware Approximate
04:10PM 20.0785 -96.6046 309° West  Level FlightAware Approximate
04:11PM 20.1523 -96.7030 309° West  Level FlightAware Approximate
04:12PM 20.2283 -96.7996 312° West  Level FlightAware Approximate
04:13PM 20.3081 -96.8926 313° West  Level FlightAware Approximate
04:14PM 20.3888 -96.9849 313° West  Level FlightAware Approximate
04:15PM 20.4694 -97.0773 313° West  Level FlightAware Approximate
04:16PM 20.5500 -97.1698 313° West  Level FlightAware Approximate
04:17PM 20.6305 -97.2624 313° West  Level FlightAware Approximate
04:18PM 20.7110 -97.3550 313° West  Level FlightAware Approximate
04:19PM 20.7914 -97.4478 313° West  Level FlightAware Approximate
04:20PM 20.8718 -97.5407 313° West  Level FlightAware Approximate
04:21PM 20.9521 -97.6337 313° West  Level FlightAware Approximate
04:22PM 21.0324 -97.7268 313° West  Level FlightAware Approximate
04:23PM 21.1126 -97.8199 313° West  Level FlightAware Approximate
04:24PM 21.1928 -97.9132 313° West  Level FlightAware Approximate
04:25PM 21.2729 -98.0066 313° West  Level FlightAware Approximate
04:26PM 21.3530 -98.1001 313° West  Level FlightAware Approximate
04:27PM 21.4330 -98.1937 313° West  Level FlightAware Approximate
04:28PM 21.5130 -98.2874 313° West  Level FlightAware Approximate
04:29PM 21.5929 -98.3811 313° West  Level FlightAware Approximate
04:30PM 21.6728 -98.4750 312° West  Level FlightAware Approximate
04:31PM 21.7526 -98.5690 312° West  Level FlightAware Approximate
04:32PM 21.8323 -98.6631 312° West  Level FlightAware Approximate
04:33PM 21.9120 -98.7573 312° West  Level FlightAware Approximate
04:34PM 21.9917 -98.8517 312° West  Level FlightAware Approximate
04:35PM 22.0713 -98.9461 312° West  Level FlightAware Approximate
04:36PM 22.1509 -99.0405 312° West  Level FlightAware Approximate
04:37PM 22.2307 -99.1349 312° West  Level FlightAware Approximate
04:38PM 22.3104 -99.2294 312° West  Level FlightAware Approximate
04:39PM 22.3900 -99.3240 312° West  Level FlightAware Approximate
04:40PM 22.4695 -99.4187 312° West  Level FlightAware Approximate
04:41PM 22.5491 -99.5135 312° West  Level FlightAware Approximate
04:42PM 22.6285 -99.6085 312° West  Level FlightAware Approximate
04:43PM 22.7079 -99.7035 312° West  Level FlightAware Approximate
04:44PM 22.7873 -99.7986 312° West  Level FlightAware Approximate
04:45PM 22.8666 -99.8939 312° West  Level FlightAware Approximate
04:46PM 22.9458 -99.9893 312° West  Level FlightAware Approximate
04:47PM 23.0250 -100.0847 312° West  Level FlightAware Approximate
04:48PM 23.1041 -100.1804 312° West  Level FlightAware Approximate
04:49PM 23.1832 -100.2761 312° West  Level FlightAware Approximate
04:50PM 23.2611 -100.3728 311° West  Level FlightAware Approximate
04:51PM 23.3383 -100.4705 311° West  Level FlightAware Approximate
04:52PM 23.4154 -100.5682 311° West  Level FlightAware Approximate
04:53PM 23.4948 -100.6636 313° West  Level FlightAware Approximate
04:54PM 23.5749 -100.7586 313° West  Level FlightAware Approximate
04:55PM 23.6549 -100.8538 313° West  Level FlightAware Approximate
04:56PM 23.7348 -100.9490 313° West  Level FlightAware Approximate
04:57PM 23.8147 -101.0443 312° West  Level FlightAware Approximate
04:58PM 23.8946 -101.1398 312° West  Level FlightAware Approximate
04:59PM 23.9743 -101.2354 312° West  Level FlightAware Approximate
05:00PM 24.0540 -101.3311 312° West  Level FlightAware Approximate
05:01PM 24.1337 -101.4269 312° West  Level FlightAware Approximate
05:02PM 24.2075 -101.5280 306° West  Level FlightAware Approximate
05:03PM 24.2773 -101.6328 306° West  Level FlightAware Approximate
05:04PM 24.3470 -101.7377 306° West  Level FlightAware Approximate
05:05PM 24.4166 -101.8427 306° West  Level FlightAware Approximate
05:06PM 24.4861 -101.9479 306° West  Level FlightAware Approximate
05:07PM 24.5556 -102.0531 306° West  Level FlightAware Approximate
05:08PM 24.6249 -102.1585 306° West  Level FlightAware Approximate
05:09PM 24.6943 -102.2640 306° West  Level FlightAware Approximate
05:10PM 24.7635 -102.3696 306° West  Level FlightAware Approximate
05:11PM 24.8326 -102.4753 306° West  Level FlightAware Approximate
05:12PM 24.9017 -102.5812 306° West  Level FlightAware Approximate
05:13PM 24.9708 -102.6872 306° West  Level FlightAware Approximate
05:14PM 25.0397 -102.7933 306° West  Level FlightAware Approximate
05:15PM 25.1085 -102.8995 306° West  Level FlightAware Approximate
05:16PM 25.1773 -103.0058 306° West  Level FlightAware Approximate
05:17PM 25.2464 -103.1119 306° West  Level FlightAware Approximate
05:18PM 25.3159 -103.2178 306° West  Level FlightAware Approximate
05:19PM 25.3853 -103.3239 306° West  Level FlightAware Approximate
05:20PM 25.4546 -103.4300 306° West  Level FlightAware Approximate
05:21PM 25.5238 -103.5363 306° West  Level FlightAware Approximate
05:22PM 25.5930 -103.6427 306° West  Level FlightAware Approximate
05:23PM 25.6621 -103.7492 306° West  Level FlightAware Approximate
05:24PM 25.7311 -103.8559 306° West  Level FlightAware Approximate
05:25PM 25.8000 -103.9626 306° West  Level FlightAware Approximate
05:26PM 25.8688 -104.0695 306° West  Level FlightAware Approximate
05:27PM 25.9376 -104.1765 306° West  Level FlightAware Approximate
05:28PM 26.0063 -104.2837 306° West  Level FlightAware Approximate
05:29PM 26.0749 -104.3909 305° West  Level FlightAware Approximate
05:30PM 26.1434 -104.4983 305° West  Level FlightAware Approximate
05:31PM 26.2119 -104.6058 305° West  Level FlightAware Approximate
05:32PM 26.2803 -104.7135 305° West  Level FlightAware Approximate
05:33PM 26.3486 -104.8212 305° West  Level FlightAware Approximate
05:34PM 26.4168 -104.9291 305° West  Level FlightAware Approximate
05:35PM 26.4849 -105.0371 305° West  Level FlightAware Approximate
05:36PM 26.5529 -105.1453 305° West  Level FlightAware Approximate
05:37PM 26.6209 -105.2536 305° West  Level FlightAware Approximate
05:38PM 26.6888 -105.3620 305° West  Level FlightAware Approximate
05:39PM 26.7566 -105.4705 305° West  Level FlightAware Approximate
05:40PM 26.8243 -105.5792 305° West  Level FlightAware Approximate
05:41PM 26.8920 -105.6880 305° West  Level FlightAware Approximate
05:42PM 26.9595 -105.7969 305° West  Level FlightAware Approximate
05:43PM 27.0270 -105.9060 305° West  Level FlightAware Approximate
05:44PM 27.0944 -106.0152 305° West  Level FlightAware Approximate
05:45PM 27.1617 -106.1245 305° West  Level FlightAware Approximate
05:46PM 27.2289 -106.2339 305° West  Level FlightAware Approximate
05:47PM 27.2960 -106.3435 305° West  Level FlightAware Approximate
05:48PM 27.3631 -106.4532 305° West  Level FlightAware Approximate
05:49PM 27.4300 -106.5631 304° West  Level FlightAware Approximate
05:50PM 27.4969 -106.6731 304° West  Level FlightAware Approximate
05:51PM 27.5637 -106.7832 304° West  Level FlightAware Approximate
05:52PM 27.6304 -106.8934 304° West  Level FlightAware Approximate
05:53PM 27.6970 -107.0038 304° West  Level FlightAware Approximate
05:54PM 27.7636 -107.1143 304° West  Level FlightAware Approximate
05:55PM 27.8300 -107.2250 304° West  Level FlightAware Approximate
05:56PM 27.8964 -107.3358 304° West  Level FlightAware Approximate
05:57PM 27.9626 -107.4467 304° West  Level FlightAware Approximate
05:58PM 28.0288 -107.5578 304° West  Level FlightAware Approximate
05:59PM 28.0949 -107.6690 304° West  Level FlightAware Approximate
06:00PM 28.1609 -107.7803 304° West  Level FlightAware Approximate
06:01PM 28.2268 -107.8918 304° West  Level FlightAware Approximate
06:02PM 28.2926 -108.0034 304° West  Level FlightAware Approximate
06:03PM 28.3583 -108.1152 304° West  Level FlightAware Approximate
06:04PM 28.4239 -108.2270 304° West  Level FlightAware Approximate
06:05PM 28.4895 -108.3391 304° West  Level FlightAware Approximate
06:05PM 27.2630 -106.1870 304° West 393 452 38,000  Level FlightAware
06:06PM 28.5549 -108.4512 304° West  Level FlightAware Approximate
06:06PM 27.3050 -106.2570 304° West 393 452 38,000  Level FlightAware
06:06PM 27.3390 -106.3140 304° West 393 452 38,000  Level FlightAware
06:07PM 27.3780 -106.3700 308° West 396 456 38,000  Level FlightAware
06:07PM 27.4190 -106.4380 304° West 396 456 38,000  Level FlightAware
06:08PM 27.4640 -106.5100 305° West 407 468 38,000  Level FlightAware
06:09PM 27.5120 -106.5850 306° West 405 466 38,000  Level FlightAware
06:09PM 27.5450 -106.6420 303° West 405 466 38,000  Level FlightAware
06:10PM 27.5810 -106.7020 304° West 405 466 38,000  Level FlightAware
06:11PM 27.6250 -106.7760 304° West 405 466 38,000  Level FlightAware
06:11PM 27.6610 -106.8360 304° West 405 466 38,000  Level FlightAware
06:12PM 27.6970 -106.8950 305° West 405 466 38,000  Level FlightAware
06:13PM 27.7320 -106.9550 303° West 405 466 38,000  Level FlightAware
06:13PM 27.7680 -107.0150 304° West 405 466 38,000  Level FlightAware
06:14PM 27.8120 -107.0890 304° West 405 466 38,000  Level FlightAware
06:15PM 27.8480 -107.1490 304° West 405 466 38,000  Level FlightAware
06:16PM 27.8840 -107.2090 304° West 405 466 38,000  Level FlightAware
06:16PM 27.9190 -107.2690 303° West 405 466 38,000  Level FlightAware
06:17PM 27.9550 -107.3280 305° West 405 466 38,000  Level FlightAware
06:18PM 27.9990 -107.4030 304° West 405 466 38,000  Level FlightAware
06:18PM 28.0350 -107.4630 304° West 405 466 38,000  Level FlightAware
06:21PM 28.1748 -107.6904 305° West  Level Estimated
06:22PM 28.2423 -107.8006 305° West  Level Estimated
06:23PM 28.3098 -107.9110 305° West  Level Estimated
06:24PM 28.3771 -108.0215 305° West  Level Estimated
06:25PM 28.4443 -108.1322 305° West  Level Estimated
06:26PM 28.5115 -108.2430 305° West  Level Estimated
06:27PM 28.5786 -108.3539 305° West  Level Estimated
06:28PM 28.6456 -108.4650 305° West  Level Estimated
06:29PM 28.7125 -108.5762 304° West  Level Estimated
06:30PM 28.7792 -108.6876 304° West  Level Estimated
06:31PM 28.8460 -108.7991 304° West  Level Estimated
06:32PM 28.9126 -108.9108 304° West  Level Estimated
06:33PM 28.9791 -109.0226 304° West  Level Estimated
06:34PM 29.0455 -109.1345 304° West  Level Estimated
06:35PM 29.1119 -109.2466 304° West  Level Estimated
06:36PM 29.1781 -109.3588 304° West  Level Estimated
06:37PM 29.2442 -109.4712 304° West  Level Estimated
06:38PM 29.3103 -109.5837 304° West  Level Estimated
06:39PM 29.3763 -109.6964 304° West  Level Estimated
06:40PM 29.4421 -109.8092 304° West  Level Estimated
06:41PM 29.5079 -109.9221 304° West  Level Estimated
06:42PM 29.5736 -110.0352 304° West  Level Estimated
06:43PM 29.6392 -110.1485 304° West  Level Estimated
06:44PM 29.7047 -110.2619 304° West  Level Estimated
06:45PM 29.7700 -110.3754 304° West  Level Estimated
06:46PM 29.8353 -110.4891 304° West  Level Estimated
06:46PM 29.8940 -110.6030 304° West 418 481 38,000  Level FlightAware
06:47PM 29.9360 -110.6780 303° West 418 481 38,000  Level FlightAware
06:48PM 29.9840 -110.7640 303° West 419 482 38,000  Level FlightAware
06:48PM 30.0260 -110.8380 303° West 418 481 38,000  Level FlightAware
06:49PM 30.0680 -110.9130 303° West 417 480 38,000  Level FlightAware
06:50PM 30.1150 -110.9970 303° West 416 479 38,000  Level FlightAware
06:51PM 30.1550 -111.0690 303° West 416 479 38,000  Level FlightAware
06:51PM 30.1970 -111.1450 303° West 416 479 38,000  Level FlightAware
06:52PM 30.2290 -111.2010 303° West 415 478 38,000  Level FlightAware
06:52PM 30.2770 -111.2870 303° West 414 476 38,000  Level FlightAware
06:53PM 30.3180 -111.3620 302° West 414 476 38,000  Level FlightAware
06:54PM 30.3580 -111.4350 302° West 413 475 38,000  Level FlightAware
06:55PM 30.4040 -111.5170 303° West 413 475 38,000  Level FlightAware
06:55PM 30.4460 -111.5920 303° West 414 476 38,000  Level FlightAware
06:56PM 30.4830 -111.6600 302° West 415 478 38,000  Level FlightAware
06:57PM 30.5240 -111.7370 302° West 415 478 38,000  Level FlightAware
06:57PM 30.5590 -111.8010 302° West 415 478 38,000  Level FlightAware
06:58PM 30.6210 -111.9120 303° West 420 483 38,000  Level FlightAware
06:59PM 30.6630 -111.9880 303° West 421 484 38,000  Level FlightAware
06:59PM 30.7040 -112.0640 302° West 420 483 38,000  Level FlightAware
07:00PM 30.7520 -112.1520 302° West 420 483 38,000  Level FlightAware
07:01PM 30.7930 -112.2280 302° West 421 484 38,000  Level FlightAware
07:02PM 30.8360 -112.3070 302° West 420 483 38,000  Level FlightAware
07:02PM 30.8740 -112.3780 302° West 420 483 38,000  Level FlightAware
07:03PM 30.9230 -112.4700 302° West 414 476 38,000  Level FlightAware
07:04PM 30.9650 -112.5520 301° West 414 476 38,000  Level FlightAware
07:05PM 31.0220 -112.6520 304° West 412 474 38,000  Level FlightAware
07:05PM 31.0660 -112.7350 302° West 412 474 38,000  Level FlightAware
07:06PM 31.1080 -112.8140 302° West 411 473 38,000  Level FlightAware
07:07PM 31.1480 -112.8890 302° West 413 475 38,000  Level FlightAware
07:07PM 31.1920 -112.9720 302° West 413 475 38,000  Level FlightAware
07:08PM 31.2440 -113.0680 302° West 413 475 38,000  Level FlightAware
07:09PM 31.2840 -113.1480 300° West 414 476 38,000  Level FlightAware
07:10PM 31.3420 -113.2580 302° West 416 479 38,000  Level FlightAware
07:11PM 31.3920 -113.3500 303° West 422 486 38,000  Level FlightAware
07:11PM 31.4260 -113.4160 301° West 422 486 38,000  Level FlightAware
07:12PM 31.4600 -113.4830 301° West 422 486 38,000  Level FlightAware
07:13PM 31.4940 -113.5500 301° West 422 486 38,000  Level FlightAware
07:13PM 31.5280 -113.6160 301° West 422 486 38,000  Level FlightAware
07:14PM 31.5710 -113.7000 301° West 422 486 38,000  Level FlightAware
07:15PM 31.6050 -113.7670 301° West 422 486 38,000  Level FlightAware
07:15PM 31.6390 -113.8330 301° West 422 486 38,000  Level FlightAware
07:16PM 31.6740 -113.9000 302° West 422 486 38,000  Level FlightAware
07:17PM 31.7160 -113.9840 300° West 422 486 38,000  Level FlightAware
07:18PM 31.7500 -114.0510 301° West 422 486 38,000  Level FlightAware
07:18PM 31.7850 -114.1180 302° West 422 486 38,000  Level FlightAware
07:19PM 31.8190 -114.1850 301° West 422 486 38,000  Level FlightAware
07:20PM 31.8530 -114.2520 301° West 422 486 38,000  Level FlightAware
07:22PM 31.9758 -114.4738 303° West  Level FlightAware Approximate
07:23PM 32.0403 -114.5907 303° West  Level FlightAware Approximate
07:24PM 32.1047 -114.7078 303° West  Level FlightAware Approximate
07:25PM 32.1690 -114.8251 303° West  Level FlightAware Approximate
07:26PM 32.2332 -114.9426 303° West  Level FlightAware Approximate
07:27PM 32.2972 -115.0602 303° West  Level FlightAware Approximate
07:28PM 32.3612 -115.1780 303° West  Level FlightAware Approximate
07:28PM 32.4661 -115.3058 304° West 416 479 38,000  Level Los Angeles Center
07:29PM 32.4250 -115.2959 303° West  Level FlightAware Approximate
07:29PM 32.5408 -115.4450 303° West 418 481 37,900  Level Los Angeles Center
07:30PM 32.4888 -115.4141 303° West  Level FlightAware Approximate
07:31PM 32.5524 -115.5323 303° West  Level FlightAware Approximate
07:32PM 32.6159 -115.6508 303° West  Level FlightAware Approximate
07:33PM 32.6811 -115.7690 304° West  Level FlightAware Approximate
07:35PM 32.9040 -116.1310 303° West 403 464 35,100  Level FlightAware
07:36PM 32.9470 -116.2120 302° West 409 471 32,800 -3,180 Descending FlightAware
07:36PM 32.9900 -116.2960 301° West 416 479 30,600 -3,120 Descending FlightAware
07:37PM 33.0350 -116.3820 302° West 413 475 28,400 -2,700 Descending FlightAware
07:38PM 33.0720 -116.4540 302° West 406 467 26,800 -2,580 Descending FlightAware
07:38PM 33.1130 -116.5330 302° West 398 458 25,000 -1,980 Descending FlightAware
07:39PM 33.1450 -116.6280 292° West 403 464 24,000 -720 Descending FlightAware
07:40PM 33.1560 -116.7150 279° West 403 464 24,000 -900 Level FlightAware
07:41PM 33.1680 -116.8080 279° West 392 451 22,800 -1,980 Descending FlightAware
07:41PM 33.1780 -116.8930 278° West 368 423 21,200 -2,220 Descending FlightAware
07:42PM 33.1890 -116.9870 278° West 355 409 19,300 -2,160 Descending FlightAware
07:43PM 33.1970 -117.0520 278° West 348 400 17,800 -2,880 Descending FlightAware
07:44PM 33.2110 -117.1620 279° West 339 390 15,300 -2,880 Descending FlightAware
07:44PM 33.2190 -117.2330 278° West 328 377 13,800 -2,220 Descending FlightAware
07:45PM 33.2290 -117.3120 279° West 330 380 12,200 -1,440 Descending FlightAware
07:46PM 33.2370 -117.3860 277° West 324 373 11,800 -1,320 Descending FlightAware
07:46PM 33.2440 -117.4670 276° West 326 375 10,400 -1,200 Descending FlightAware
07:47PM 33.2480 -117.5360 274° West 306 352 10,100 -240 Descending FlightAware
07:48PM 33.2520 -117.6050 274° West 304 350 10,100  Level FlightAware
07:48PM 33.2590 -117.6260 292° West 301 346 10,100  Level FlightAware
07:49PM 33.2940 -117.6750 311° West 294 338 10,100  Level FlightAware
07:49PM 33.3350 -117.7320 311° West 295 339 10,100  Level FlightAware
07:50PM 33.3700 -117.7800 311° West 296 341 10,100 -120 Level FlightAware
07:51PM 33.3980 -117.8180 311° West 294 338 10,000 -600 Descending FlightAware
07:51PM 33.4070 -117.8310 310° West 294 338 9,700 -1,680 Descending FlightAware
07:51PM 33.4340 -117.8670 312° West 292 336 8,900 -1,500 Descending FlightAware
07:52PM 33.4600 -117.9020 312° West 291 335 8,200 -900 Descending FlightAware
07:52PM 33.4830 -117.9320 313° West 288 331 8,100 -120 Descending FlightAware
07:53PM 33.5100 -117.9680 312° West 286 329 8,100 -420 Level FlightAware
07:53PM 33.5380 -118.0010 316° Northwest 289 333 7,700 -1,080 Descending FlightAware
07:53PM 33.5500 -118.0070 337° Northwest 286 329 7,400 -900 Descending FlightAware
07:54PM 33.5880 -118.0180 346° North 283 326 7,100 -300 Descending FlightAware
07:54PM 33.6270 -118.0260 350° North 280 322 7,100  Level FlightAware
07:55PM 33.6600 -118.0320 351° North 280 322 7,100  Level FlightAware
07:55PM 33.7000 -118.0390 352° North 282 325 7,100  Level FlightAware
07:56PM 33.7300 -118.0450 351° North 282 325 7,100  Level FlightAware
07:56PM 33.7690 -118.0520 352° North 281 323 7,100  Level FlightAware
07:57PM 33.8010 -118.0580 351° North 270 311 7,100  Level FlightAware
07:57PM 33.8370 -118.0710 343° North 253 291 7,100  Level FlightAware
07:58PM 33.8690 -118.0820 344° North 250 288 7,100 -240 Level FlightAware
07:58PM 33.8970 -118.0920 343° North 248 285 6,900 -1,140 Descending FlightAware
07:58PM 33.9300 -118.1040 343° North 242 278 6,100 -1,620 Descending FlightAware
07:59PM 33.9420 -118.1180 316° Northwest 234 269 5,700 -1,500 Descending FlightAware
07:59PM 33.9530 -118.1470 295° West 230 265 5,100 -1,560 Descending FlightAware
08:00PM 33.9590 -118.1760 284° West 219 252 4,400 -1,440 Descending FlightAware
08:00PM 33.9550 -118.2110 262° West 196 226 3,800 -1,440 Descending FlightAware
08:00PM 33.9520 -118.2380 262° West 189 217 3,100 -1,620 Descending FlightAware
08:01PM 33.9500 -118.2580 263° West 183 211 2,600 -780 Descending FlightAware
08:01PM 33.9460 -118.2900 261° West 179 206 2,400 -1,140 Descending FlightAware
08:02PM 33.9422 -118.3347 261° West 183 211 1,000 -1,200 Descending Los Angeles Center
08:03PM 33.9392 -118.3783 265° West 151 174 200 -780 Descending Los Angeles Center
08:05PM 33.9333 -118.4000 270° West  Level FlightAware Approximate
08:12PM 33.9425 -118.4081 270° West  Level Estimated